Search for airport 
image banner adimage banner adimage banner ad
image banner ad

36CL - Tri-City Hospital

Located in Oceanside, United States

ICAO - 36CL, IATA -

Data provided by Airmate  

General information

Coordinates: N33°11'7" W117°17'28"
Elevation is 260 feet MSL.
Magnetic variation is 13° East
View others Airports in California

Operational data

Special qualification required
Current time UTC:
Current local time:
Weather at : KCRQ - Mc Clellan-Palomar ( 6 km )
METAR: KCRQ 292153Z 25008KT 10SM SCT008 22/17 A2989 RMK AO2 SLP119 T02170172
TAF: KCRQ 291733Z 2918/3018 27009KT P6SM SKC FM300100 26005KT P6SM FEW200 FM300600 VRB04KT 4SM BR BKN006 FM301600 VRB04KT P6SM SCT008 SCT150
View NOTAMs / SUP AIP / TFR affecting this airport [VIEW]
Communications frequencies: [VIEW]

Runways:

Airport contact information

Address: Oceanside United States

Satellite view of 36CL